createdAt,value
2023-02-26T00:00:00.475Z,1.1
2023-02-26T00:15:00.504Z,0.9
2023-02-26T00:30:00.490Z,0.7
2023-02-26T00:45:00.463Z,0.7
2023-02-26T01:00:00.495Z,0.6
2023-02-26T01:15:00.522Z,0.6
2023-02-26T01:30:00.551Z,0.5
2023-02-26T01:45:00.462Z,0.4
2023-02-26T02:00:00.481Z,0.4
2023-02-26T02:15:00.476Z,0.2
2023-02-26T02:30:00.488Z,0.1
2023-02-26T02:45:00.501Z,0.0
2023-02-26T03:00:00.556Z,0.1
2023-02-26T03:15:00.496Z,0.2
2023-02-26T03:30:00.446Z,0.1
2023-02-26T03:45:00.524Z,0.1
2023-02-26T04:00:00.482Z,0.0
2023-02-26T04:15:00.448Z,0.0
2023-02-26T04:30:00.462Z,0.0
2023-02-26T04:45:00.579Z,0.0
2023-02-26T05:00:00.542Z,0.0
2023-02-26T05:15:00.483Z,-0.1
2023-02-26T05:30:00.495Z,-0.1
2023-02-26T05:45:00.525Z,-0.2
2023-02-26T06:00:00.476Z,-0.2
2023-02-26T06:15:00.510Z,-0.2
2023-02-26T06:30:00.486Z,-0.3
2023-02-26T06:45:00.533Z,-0.3
2023-02-26T07:00:00.504Z,-0.3
2023-02-26T07:15:00.447Z,-0.2
2023-02-26T07:30:00.489Z,0.0
2023-02-26T07:45:00.525Z,0.2
2023-02-26T08:00:00.465Z,0.4
2023-02-26T08:15:00.498Z,0.8
2023-02-26T08:30:00.458Z,0.9
2023-02-26T08:45:00.574Z,0.9
2023-02-26T09:00:00.488Z,1.2
2023-02-26T09:15:00.511Z,1.5
2023-02-26T09:30:00.532Z,1.7
2023-02-26T09:45:00.539Z,1.8
2023-02-26T10:00:00.492Z,2.0
2023-02-26T10:15:00.524Z,2.0
2023-02-26T10:30:00.455Z,2.1
2023-02-26T10:45:00.542Z,2.2
2023-02-26T11:00:00.449Z,2.2
2023-02-26T11:15:00.432Z,2.2
2023-02-26T11:30:00.473Z,2.3
2023-02-26T11:45:00.715Z,2.5
2023-02-26T12:00:00.506Z,2.4
2023-02-26T12:15:00.501Z,2.2
2023-02-26T12:30:00.463Z,2.2
2023-02-26T12:45:00.543Z,2.2
2023-02-26T13:00:00.524Z,2.2
2023-02-26T13:15:00.482Z,2.3
2023-02-26T13:30:00.475Z,2.4
2023-02-26T13:45:00.535Z,2.4
2023-02-26T14:00:00.547Z,2.3
2023-02-26T14:15:00.815Z,2.2
2023-02-26T14:30:00.784Z,2.2
2023-02-26T14:45:00.538Z,2.0
2023-02-26T15:00:00.520Z,1.9
2023-02-26T15:15:00.453Z,1.9
2023-02-26T15:30:00.516Z,1.8
2023-02-26T15:45:00.547Z,1.7
2023-02-26T16:00:00.586Z,1.6
2023-02-26T16:15:00.471Z,1.5
2023-02-26T16:30:00.924Z,1.4
2023-02-26T16:45:00.531Z,1.3
2023-02-26T17:00:00.464Z,1.1
2023-02-26T17:15:00.501Z,1.0
2023-02-26T17:30:00.478Z,0.9
2023-02-26T17:45:00.508Z,0.9
2023-02-26T18:00:00.493Z,0.9
2023-02-26T18:15:00.504Z,0.9
2023-02-26T18:30:00.470Z,0.8
2023-02-26T18:45:00.553Z,0.8
2023-02-26T19:00:00.486Z,0.7
2023-02-26T19:15:00.490Z,0.6
2023-02-26T19:30:00.492Z,0.6
2023-02-26T19:45:00.471Z,0.6
2023-02-26T20:00:00.589Z,0.5
2023-02-26T20:15:00.468Z,0.4
2023-02-26T20:30:00.575Z,0.4
2023-02-26T20:45:00.480Z,0.3
2023-02-26T21:00:00.505Z,0.3
2023-02-26T21:15:00.537Z,0.2
2023-02-26T21:30:00.494Z,0.2
2023-02-26T21:45:00.513Z,0.1
2023-02-26T22:00:00.496Z,0.0
2023-02-26T22:15:00.479Z,0.0
2023-02-26T22:30:00.527Z,-0.1
2023-02-26T22:45:00.484Z,-0.2
2023-02-26T23:00:00.479Z,-0.3
2023-02-26T23:15:00.506Z,-0.5
2023-02-26T23:30:00.461Z,-0.7
2023-02-26T23:45:00.591Z,-0.9
